Time;durP1;ratioP1;P1;durP2;ratioP2;P2;SDS_P1;SDS_P2;PMS_P1;PMS_P2;Temp;Humidity;BMP_temperature;BMP_pressure;BME280_temperature;BME280_humidity;BME280_pressure;Samples;Min_cycle;Max_cycle;Signal;HPM_P1;HPM_P2
2022/06/06 00:02:08;;;;;;;8.40;5.95;;;;;;;17.22;55.37;99321.44;8511351;27;20050;-72
2022/06/06 00:06:11;;;;;;;7.45;5.03;;;;;;;17.12;55.58;99305.56;8513551;27;20039;-71
2022/06/06 00:10:12;;;;;;;8.13;5.35;;;;;;;17.09;55.67;99300.78;8527083;27;20051;-71
2022/06/06 00:14:15;;;;;;;8.38;5.28;;;;;;;17.04;55.62;99298.31;8483593;27;20071;-71
2022/06/06 00:18:16;;;;;;;8.75;5.53;;;;;;;17.03;55.61;99296.72;8517419;27;20582;-71
2022/06/06 00:22:17;;;;;;;8.55;5.38;;;;;;;16.97;55.81;99303.56;8524719;27;20111;-71
2022/06/06 00:26:18;;;;;;;9.20;4.88;;;;;;;16.93;55.92;99308.13;8517429;27;20050;-71
2022/06/06 00:30:19;;;;;;;7.93;5.10;;;;;;;16.87;55.93;99298.56;8523459;27;20514;-71
2022/06/06 00:38:41;;;;;;;9.98;5.30;;;;;;;16.81;56.10;99294.53;8502828;27;20070;-71
2022/06/06 00:42:42;;;;;;;9.75;5.53;;;;;;;16.81;55.97;99278.16;8517424;27;20043;-71
2022/06/06 00:47:00;;;;;;;8.40;5.55;;;;;;;16.75;56.33;99274.09;8514591;27;20416;-71
2022/06/06 00:51:10;;;;;;;7.93;4.95;;;;;;;16.68;56.54;99257.50;8477493;27;20046;-72
2022/06/06 00:55:15;;;;;;;13.20;5.35;;;;;;;16.70;56.66;99255.25;8493746;27;20091;-71
2022/06/06 00:59:20;;;;;;;8.57;5.65;;;;;;;16.62;57.00;99242.53;8514408;27;20476;-71
2022/06/06 01:03:24;;;;;;;9.93;5.85;;;;;;;16.59;57.14;99226.88;8522738;27;20051;-72
2022/06/06 01:07:31;;;;;;;5.85;4.80;;;;;;;16.61;57.17;99213.66;8486239;27;20038;-71
2022/06/06 01:11:38;;;;;;;8.27;6.35;;;;;;;16.62;57.45;99204.34;8453495;27;20485;-71
2022/06/06 01:16:05;;;;;;;9.60;5.85;;;;;;;16.62;57.60;99198.91;8486175;27;20047;-71
2022/06/06 01:20:27;;;;;;;9.40;6.30;;;;;;;16.61;57.92;99197.31;8526620;27;20039;-72
2022/06/06 01:24:39;;;;;;;11.20;6.15;;;;;;;16.60;58.03;99190.28;8519129;27;20054;-71
2022/06/06 01:28:56;;;;;;;12.77;6.45;;;;;;;16.60;58.13;99190.28;8472531;27;20050;-72
2022/06/06 01:32:59;;;;;;;8.75;5.95;;;;;;;16.56;58.30;99189.34;8508751;27;20039;-72
2022/06/06 01:37:01;;;;;;;13.82;8.18;;;;;;;16.51;58.82;99192.31;8516098;27;20046;-71
2022/06/06 01:41:07;;;;;;;10.05;6.30;;;;;;;16.42;58.93;99190.53;8529898;27;20047;-73
2022/06/06 01:45:16;;;;;;;12.73;6.63;;;;;;;16.35;59.27;99195.75;8507871;27;20610;-72
2022/06/06 01:49:17;;;;;;;8.73;6.13;;;;;;;16.29;59.52;99197.13;8509120;27;20499;-73
2022/06/06 01:53:23;;;;;;;11.00;6.60;;;;;;;16.23;59.57;99193.06;8513047;27;20448;-72
2022/06/06 01:57:25;;;;;;;10.45;6.72;;;;;;;16.13;60.32;99209.88;8520285;27;20487;-71
2022/06/06 02:01:26;;;;;;;11.40;6.50;;;;;;;16.03;60.70;99210.34;8498733;27;20074;-72
2022/06/06 02:05:28;;;;;;;9.75;6.50;;;;;;;15.96;60.78;99204.69;8519406;27;20043;-72
2022/06/06 02:09:31;;;;;;;15.82;6.72;;;;;;;15.90;61.25;99206.06;8512331;27;20115;-71
2022/06/06 02:13:32;;;;;;;10.23;7.15;;;;;;;15.82;61.79;99198.78;8461989;27;20054;-72
2022/06/06 02:17:34;;;;;;;11.55;7.72;;;;;;;15.74;62.06;99207.88;8527817;27;20047;-72
2022/06/06 02:21:37;;;;;;;11.02;6.93;;;;;;;15.65;62.43;99210.69;8495615;27;20069;-72
2022/06/06 02:25:38;;;;;;;14.15;7.47;;;;;;;15.58;62.87;99205.81;8525618;27;20058;-72
2022/06/06 02:29:39;;;;;;;8.48;6.43;;;;;;;15.57;62.84;99209.66;8514467;27;20129;-73
2022/06/06 02:33:40;;;;;;;11.85;6.68;;;;;;;15.56;62.82;99197.19;8512817;27;20046;-72
2022/06/06 02:37:41;;;;;;;12.00;8.02;;;;;;;15.61;62.93;99209.78;8486996;27;20054;-72
2022/06/06 02:41:43;;;;;;;12.73;7.70;;;;;;;15.60;63.15;99198.09;8523261;27;20043;-72
2022/06/06 02:45:47;;;;;;;21.55;8.27;;;;;;;15.67;63.12;99185.84;8512139;27;20050;-72
2022/06/06 02:49:48;;;;;;;13.80;8.23;;;;;;;15.75;63.13;99182.25;8477982;27;20050;-72
2022/06/06 02:53:50;;;;;;;17.63;8.48;;;;;;;15.83;63.37;99184.03;8490665;27;20122;-72
2022/06/06 02:57:55;;;;;;;13.20;8.90;;;;;;;15.88;63.21;99178.34;8511758;27;20549;-72
2022/06/06 03:01:59;;;;;;;16.80;9.50;;;;;;;15.96;63.28;99177.47;8442390;27;20118;-72
2022/06/06 03:06:08;;;;;;;12.80;9.15;;;;;;;15.96;63.27;99169.28;8514065;27;20043;-72
2022/06/06 03:10:11;;;;;;;;;;;;;;;15.97;63.38;99173.56;8482889;27;20153;-72
2022/06/06 03:14:38;;;;;;;13.75;8.82;;;;;;;15.98;63.59;99180.63;8455079;27;19923;-72
2022/06/06 03:23:50;;;;;;;16.77;9.05;;;;;;;15.96;63.80;99193.81;8491448;27;20039;-72
2022/06/06 03:27:58;;;;;;;17.88;10.40;;;;;;;15.94;64.11;99190.63;8410021;28;20059;-72
2022/06/06 03:32:18;;;;;;;16.65;9.45;;;;;;;15.95;64.06;99189.47;8414899;28;20052;-71
2022/06/06 03:36:49;;;;;;;11.88;9.05;;;;;;;15.96;64.21;99188.34;8402572;28;20049;-72
2022/06/06 03:41:07;;;;;;;12.57;9.23;;;;;;;15.97;64.26;99189.91;8417061;28;20059;-72
2022/06/06 03:45:40;;;;;;;14.13;9.32;;;;;;;15.98;64.38;99186.84;8387464;28;20052;-71
2022/06/06 03:50:08;;;;;;;11.23;9.25;;;;;;;16.01;64.66;99185.41;8356633;28;20081;-72
2022/06/06 03:54:34;;;;;;;12.57;9.70;;;;;;;16.00;65.07;99184.59;8335263;28;20065;-72
2022/06/06 03:58:40;;;;;;;13.30;10.13;;;;;;;16.05;64.86;99180.84;8381948;28;20402;-72
2022/06/06 04:02:43;;;;;;;12.88;10.25;;;;;;;16.11;65.28;99179.47;8402835;28;20052;-71
2022/06/06 04:06:45;;;;;;;15.70;10.20;;;;;;;16.22;65.16;99180.59;8385431;28;20052;-72
2022/06/06 04:11:08;;;;;;;16.73;11.52;;;;;;;16.24;65.69;99189.19;8345662;28;20439;-72
2022/06/06 04:15:24;;;;;;;17.70;10.85;;;;;;;16.40;65.23;99181.91;8354784;28;20046;-72
2022/06/06 04:19:28;;;;;;;18.13;11.25;;;;;;;16.51;65.08;99170.50;8334826;28;20042;-72
2022/06/06 04:23:46;;;;;;;14.15;10.25;;;;;;;16.63;64.95;99167.78;8340589;28;20129;-72
2022/06/06 04:27:55;;;;;;;15.43;10.73;;;;;;;16.65;65.05;99173.69;8434548;28;20035;-71
2022/06/06 04:32:22;;;;;;;15.38;10.68;;;;;;;16.66;65.15;99177.97;8344624;28;20052;-72
2022/06/06 04:36:29;;;;;;;16.45;10.82;;;;;;;16.63;65.24;99184.13;8349550;28;20037;-71
2022/06/06 04:40:44;;;;;;;16.63;11.15;;;;;;;16.71;65.33;99180.44;8369890;28;20044;-72
2022/06/06 04:44:52;;;;;;;14.45;10.57;;;;;;;16.76;65.44;99177.50;8393781;28;20048;-73
2022/06/06 04:48:53;;;;;;;18.87;11.33;;;;;;;16.75;65.69;99186.81;8399625;28;20040;-73
2022/06/06 04:53:01;;;;;;;14.73;10.73;;;;;;;16.72;66.00;99182.03;8320224;28;20390;-72
2022/06/06 04:57:03;;;;;;;16.57;11.20;;;;;;;16.75;66.20;99181.38;8353085;28;20527;-73
2022/06/06 05:01:04;;;;;;;17.08;11.40;;;;;;;16.85;66.36;99186.31;8349844;28;20036;-72
2022/06/06 05:05:05;;;;;;;17.67;11.70;;;;;;;16.97;66.22;99183.53;8414117;28;20182;-72
2022/06/06 05:09:28;;;;;;;15.32;10.60;;;;;;;17.02;66.17;99186.00;8391059;28;20449;-71
2022/06/06 05:14:07;;;;;;;18.60;10.77;;;;;;;17.03;66.29;99193.03;8424602;28;20067;-72
2022/06/06 05:18:23;;;;;;;15.65;11.10;;;;;;;16.97;66.27;99194.47;8297420;28;20400;-72
2022/06/06 05:23:01;;;;;;;14.38;11.07;;;;;;;16.95;66.50;99191.28;8285766;28;20084;-72
2022/06/06 05:27:14;;;;;;;18.60;11.35;;;;;;;16.95;67.02;99191.28;8296068;28;20049;-72
2022/06/06 05:31:40;;;;;;;17.02;10.75;;;;;;;16.99;66.40;99192.16;8339134;28;20055;-72
2022/06/06 05:36:02;;;;;;;15.30;11.32;;;;;;;17.08;66.39;99206.41;8361540;28;20072;-73
2022/06/06 05:40:25;;;;;;;20.33;11.18;;;;;;;17.18;65.97;99195.00;8358877;28;20491;-72
2022/06/06 05:44:52;;;;;;;26.67;10.90;;;;;;;17.29;65.52;99198.78;8362360;28;20073;-71
2022/06/06 05:49:00;;;;;;;17.95;10.55;;;;;;;17.45;64.98;99198.03;8358470;28;20414;-72
2022/06/06 05:53:09;;;;;;;18.98;11.00;;;;;;;17.58;65.52;99196.78;8395292;28;20135;-71
2022/06/06 05:57:49;;;;;;;18.55;10.32;;;;;;;17.77;65.02;99194.16;8395304;28;20045;-72
2022/06/06 06:01:55;;;;;;;19.88;11.50;;;;;;;17.95;64.67;99205.53;8360573;28;20439;-72
2022/06/06 06:06:26;;;;;;;17.67;10.70;;;;;;;18.10;64.32;99194.56;8344664;28;20491;-72
2022/06/06 06:10:33;;;;;;;21.33;10.82;;;;;;;18.13;64.22;99190.34;8342708;28;20147;-72
2022/06/06 06:15:02;;;;;;;15.70;10.10;;;;;;;18.31;64.48;99201.66;8333154;28;20053;-71
2022/06/06 06:19:15;;;;;;;15.03;10.87;;;;;;;18.49;63.87;99200.09;8330564;28;20053;-72
2022/06/06 06:23:21;;;;;;;27.05;11.07;;;;;;;18.73;63.87;99208.03;8322705;28;20046;-73
2022/06/06 06:27:23;;;;;;;17.58;10.80;;;;;;;18.85;63.96;99210.66;8295204;28;20510;-72
2022/06/06 06:31:31;;;;;;;13.30;10.50;;;;;;;19.06;63.53;99206.72;8319464;28;20048;-73
2022/06/06 06:35:41;;;;;;;18.17;11.18;;;;;;;19.25;63.43;99212.16;8279701;28;20037;-72
2022/06/06 06:40:06;;;;;;;17.27;11.45;;;;;;;19.50;63.23;99202.50;8419266;28;20570;-72
2022/06/06 06:44:11;;;;;;;14.88;10.60;;;;;;;19.67;62.73;99212.94;8408968;28;20517;-72
2022/06/06 06:48:24;;;;;;;15.30;10.82;;;;;;;19.65;62.88;99204.31;8483621;27;20313;-72
2022/06/06 06:52:45;;;;;;;16.45;10.27;;;;;;;19.80;62.57;99222.56;8472929;27;20435;-71
2022/06/06 06:57:21;;;;;;;16.55;10.85;;;;;;;19.82;62.20;99230.44;8433840;28;20050;-72
2022/06/06 07:01:26;;;;;;;20.00;10.82;;;;;;;19.94;62.56;99226.66;8474462;27;20335;-72
2022/06/06 07:10:26;;;;;;;12.85;9.57;;;;;;;20.49;61.88;99225.97;8475852;27;20058;-72
2022/06/06 07:15:08;;;;;;;15.95;10.90;;;;;;;20.82;61.77;99227.16;8489436;27;20051;-72
2022/06/06 07:19:19;;;;;;;17.75;10.55;;;;;;;21.11;59.85;99223.56;8477922;27;20503;-71
2022/06/06 07:23:22;;;;;;;14.13;10.23;;;;;;;21.18;59.50;99234.69;8437662;27;20057;-72
2022/06/06 07:27:23;;;;;;;13.88;9.75;;;;;;;21.18;59.09;99233.88;8491118;27;20047;-72
2022/06/06 07:31:36;;;;;;;22.85;10.93;;;;;;;21.32;59.48;99229.31;8495478;27;20064;-72
2022/06/06 07:35:43;;;;;;;14.98;9.82;;;;;;;21.46;58.66;99224.00;8495823;27;20039;-72
2022/06/06 07:39:59;;;;;;;13.05;9.32;;;;;;;21.49;58.35;99239.72;8511582;27;20039;-72
2022/06/06 07:44:26;;;;;;;16.27;9.05;;;;;;;21.71;58.37;99228.91;8524267;27;20121;-72
2022/06/06 07:48:39;;;;;;;15.13;9.73;;;;;;;21.88;58.36;99222.78;8482159;27;20125;-72
2022/06/06 07:53:09;;;;;;;16.40;9.68;;;;;;;21.87;58.00;99226.69;8527096;27;20122;-72
2022/06/06 07:57:32;;;;;;;14.65;9.43;;;;;;;22.00;57.18;99225.25;8528388;27;20477;-72
2022/06/06 08:01:45;;;;;;;13.00;9.38;;;;;;;22.11;57.16;99231.59;8511798;27;20043;-72
2022/06/06 08:06:24;;;;;;;14.57;8.82;;;;;;;22.25;57.12;99231.72;8526651;27;20149;-72
2022/06/06 08:10:43;;;;;;;13.32;9.32;;;;;;;22.39;56.80;99224.72;8529510;27;20074;-72
2022/06/06 08:15:21;;;;;;;15.73;9.90;;;;;;;22.41;56.54;99238.88;8507429;27;20039;-72
2022/06/06 08:19:33;;;;;;;11.82;8.13;;;;;;;22.37;57.45;99232.56;8506480;27;20059;-72
2022/06/06 08:23:37;;;;;;;11.65;8.20;;;;;;;22.42;58.20;99245.97;8529659;27;20047;-72
2022/06/06 08:27:42;;;;;;;12.77;7.95;;;;;;;22.30;58.36;99244.31;8528806;27;20050;-72
2022/06/06 08:31:43;;;;;;;11.18;8.00;;;;;;;22.32;58.72;99242.75;8487073;27;20043;-72
2022/06/06 08:35:54;;;;;;;13.30;8.30;;;;;;;22.29;59.58;99249.03;8526718;27;20038;-72
2022/06/06 08:40:07;;;;;;;15.48;8.13;;;;;;;22.31;59.79;99235.66;8528201;27;20047;-72
2022/06/06 08:44:17;;;;;;;10.02;7.85;;;;;;;22.17;60.31;99230.06;8510411;27;20058;-72
2022/06/06 08:48:41;;;;;;;13.13;7.85;;;;;;;21.96;61.90;99246.41;8491544;27;20442;-72
2022/06/06 08:53:00;;;;;;;13.90;9.48;;;;;;;21.65;63.36;99246.91;8349739;28;20064;-72
2022/06/06 08:57:31;;;;;;;12.13;8.20;;;;;;;21.72;64.01;99252.50;8355979;28;20036;-72
2022/06/06 09:01:46;;;;;;;15.07;9.20;;;;;;;21.57;65.54;99256.28;8335724;28;20680;-71
2022/06/06 09:06:07;;;;;;;16.30;9.98;;;;;;;21.49;65.79;99267.19;8354675;28;20450;-72
2022/06/06 09:10:38;;;;;;;14.65;9.25;;;;;;;21.48;66.12;99265.59;8352648;28;20140;-71
2022/06/06 09:14:50;;;;;;;12.45;8.60;;;;;;;21.62;66.64;99269.66;8336666;28;20052;-72
2022/06/06 09:19:27;;;;;;;10.85;9.27;;;;;;;21.77;66.44;99271.38;8321222;28;20045;-73
2022/06/06 09:23:59;;;;;;;12.68;9.57;;;;;;;21.65;65.59;99285.38;8344748;28;20083;-73
2022/06/06 09:28:42;;;;;;;12.35;9.45;;;;;;;21.69;64.81;99291.72;8380486;27;20050;-72
2022/06/06 09:33:08;;;;;;;15.13;11.48;;;;;;;21.84;65.25;99298.91;8321233;28;20484;-72
2022/06/06 09:37:48;;;;;;;20.80;10.48;;;;;;;21.80;64.52;99293.38;8284926;28;20048;-72
2022/06/06 09:42:15;;;;;;;16.67;10.85;;;;;;;21.72;64.79;99296.47;8303155;28;20167;-72
2022/06/06 09:46:22;;;;;;;17.38;11.90;;;;;;;21.69;64.58;99297.19;8269386;28;20084;-72
2022/06/06 09:50:42;;;;;;;15.80;10.30;;;;;;;21.72;65.15;99296.47;8283115;28;20096;-71
2022/06/06 10:00:03;;;;;;;14.88;10.55;;;;;;;21.67;65.85;99294.06;8253211;28;20064;-72
2022/06/06 10:04:31;;;;;;;15.02;10.32;;;;;;;21.65;66.49;99290.88;8263557;28;20242;-72
2022/06/06 10:08:51;;;;;;;12.13;9.85;;;;;;;21.71;67.36;99294.88;8426600;28;20040;-73
2022/06/06 10:13:22;;;;;;;13.20;9.90;;;;;;;21.63;68.02;99293.22;8429534;28;20072;-71
2022/06/06 10:17:38;;;;;;;12.90;9.15;;;;;;;21.66;67.92;99297.97;8431007;28;20118;-73
2022/06/06 10:22:05;;;;;;;12.55;8.85;;;;;;;21.81;67.68;99294.19;8421946;28;20040;-72
2022/06/06 10:26:12;;;;;;;13.32;9.00;;;;;;;21.90;67.83;99283.66;8424973;28;20119;-72
2022/06/06 10:30:32;;;;;;;10.93;8.80;;;;;;;22.00;66.83;99287.69;8388088;28;20040;-72
2022/06/06 10:34:52;;;;;;;12.70;8.68;;;;;;;22.02;66.85;99286.16;8441525;27;20579;-73
2022/06/06 10:39:02;;;;;;;;;;;;;;;22.02;66.34;99294.41;8526479;27;20058;-73
2022/06/06 10:43:28;;;;;;;11.77;9.63;;;;;;;22.09;66.62;99285.44;8529892;27;19927;-73
2022/06/06 10:47:41;;;;;;;16.63;9.60;;;;;;;22.10;66.15;99289.75;8529601;27;20035;-72
2022/06/06 10:52:15;;;;;;;10.00;8.50;;;;;;;22.14;65.59;99291.38;8528816;27;20053;-73
2022/06/06 10:56:38;;;;;;;9.10;8.05;;;;;;;22.27;66.50;99283.59;8525510;27;20058;-72
2022/06/06 11:00:58;;;;;;;12.10;8.93;;;;;;;22.23;66.12;99288.28;8527379;27;20503;-73
2022/06/06 11:05:07;;;;;;;10.63;7.97;;;;;;;22.36;65.89;99286.03;8526218;27;20041;-72
2022/06/06 11:09:30;;;;;;;17.77;9.00;;;;;;;22.51;64.90;99287.69;8527435;27;20071;-73
2022/06/06 11:13:59;;;;;;;20.83;8.60;;;;;;;22.48;65.40;99288.44;8468975;27;20038;-72
2022/06/06 11:18:12;;;;;;;8.63;7.55;;;;;;;22.85;64.84;99291.84;8526589;27;20057;-73
2022/06/06 11:22:33;;;;;;;10.27;8.10;;;;;;;22.87;64.71;99288.69;8524801;27;20046;-72
2022/06/06 11:26:46;;;;;;;17.30;8.98;;;;;;;22.55;66.30;99294.00;8489971;27;20039;-74
2022/06/06 11:30:59;;;;;;;13.57;8.40;;;;;;;22.25;67.06;99286.75;8510428;27;20047;-72
2022/06/06 11:35:29;;;;;;;16.52;8.88;;;;;;;22.18;67.83;99303.19;8527060;27;20027;-73
2022/06/06 11:40:03;;;;;;;10.02;8.68;;;;;;;22.08;68.72;99292.09;8518637;27;20047;-73
2022/06/06 11:44:33;;;;;;;9.77;7.78;;;;;;;22.24;68.60;99296.16;8506717;27;20130;-73
2022/06/06 11:48:59;;;;;;;9.20;8.20;;;;;;;22.46;67.60;99290.81;8353455;28;20107;-72
2022/06/06 11:53:11;;;;;;;8.48;7.57;;;;;;;22.63;67.67;99301.16;8315687;28;20503;-72
2022/06/06 11:57:31;;;;;;;10.27;7.90;;;;;;;22.31;68.07;99298.94;8353671;28;20053;-72
2022/06/06 12:02:09;;;;;;;12.02;8.32;;;;;;;21.94;69.14;99298.28;8332120;28;20583;-72
2022/06/06 12:06:22;;;;;;;8.68;7.78;;;;;;;21.83;70.44;99308.34;8352737;28;20048;-72
2022/06/06 12:10:30;;;;;;;7.70;6.90;;;;;;;21.81;69.72;99308.72;8354476;28;20171;-71
2022/06/06 12:15:04;;;;;;;9.18;7.57;;;;;;;21.80;70.05;99309.88;8353265;28;20045;-73
2022/06/06 12:19:12;;;;;;;9.75;7.50;;;;;;;21.86;70.04;99304.84;8352066;28;20036;-72
2022/06/06 12:23:44;;;;;;;11.63;7.93;;;;;;;21.91;70.28;99301.75;8381604;27;20038;-72
2022/06/06 12:27:51;;;;;;;9.82;7.20;;;;;;;21.97;69.93;99308.50;8529039;27;20046;-71
2022/06/06 12:31:58;;;;;;;7.13;6.28;;;;;;;22.07;69.82;99307.81;8528756;27;20047;-72
2022/06/06 12:36:07;;;;;;;5.68;5.07;;;;;;;21.83;69.78;99311.09;8528711;27;20484;-72
2022/06/06 12:40:16;;;;;;;9.63;5.57;;;;;;;21.59;70.00;99308.88;8506517;27;20049;-72
2022/06/06 12:44:21;;;;;;;6.32;4.10;;;;;;;21.58;70.06;99307.28;8528422;27;20138;-72
2022/06/06 12:48:51;;;;;;;4.70;4.20;;;;;;;21.52;70.39;99303.34;8524833;27;20453;-73
2022/06/06 12:53:20;;;;;;;5.38;4.88;;;;;;;21.62;70.47;99297.16;8516766;27;20053;-73
2022/06/06 12:57:53;;;;;;;6.65;5.13;;;;;;;21.74;69.96;99299.59;8529583;27;20082;-73
2022/06/06 13:02:10;;;;;;;7.22;4.25;;;;;;;21.66;70.94;99297.97;8390696;28;20234;-73
2022/06/06 13:06:23;;;;;;;5.10;4.40;;;;;;;21.76;69.72;99303.56;8366624;28;20044;-72
2022/06/06 13:10:34;;;;;;;4.82;4.25;;;;;;;21.60;70.50;99293.97;8378001;28;20052;-72
2022/06/06 13:15:05;;;;;;;5.05;4.30;;;;;;;21.40;71.62;99296.94;8324252;28;20042;-73
2022/06/06 13:19:21;;;;;;;7.38;4.22;;;;;;;21.23;73.05;99303.00;8193419;28;20083;-73
2022/06/06 13:23:49;;;;;;;7.45;4.22;;;;;;;21.19;73.18;99302.19;8198756;28;20051;-73
2022/06/06 13:27:51;;;;;;;7.47;4.30;;;;;;;21.10;73.71;99309.88;8164815;28;20067;-74
2022/06/06 13:31:57;;;;;;;4.30;3.90;;;;;;;21.04;74.15;99311.38;8198144;28;20477;-73
2022/06/06 13:36:11;;;;;;;6.43;3.72;;;;;;;21.12;73.59;99307.53;8219616;28;20070;-73
2022/06/06 13:40:45;;;;;;;5.97;4.00;;;;;;;20.97;73.89;99306.59;8335957;28;20148;-72
2022/06/06 13:45:06;;;;;;;5.57;3.78;;;;;;;20.84;74.32;99307.16;8262286;28;20061;-73
2022/06/06 13:49:51;;;;;;;5.47;3.50;;;;;;;20.93;73.80;99294.78;8245420;28;20046;-74
2022/06/06 13:54:02;;;;;;;4.65;3.15;;;;;;;21.16;72.97;99297.41;8133822;29;20526;-73
2022/06/06 13:58:12;;;;;;;4.60;3.35;;;;;;;21.52;71.07;99292.34;8201123;29;20142;-73
2022/06/06 14:02:36;;;;;;;3.75;3.30;;;;;;;21.82;69.70;99290.28;8200690;28;20228;-73
2022/06/06 14:06:59;;;;;;;3.42;3.13;;;;;;;22.32;68.38;99286.78;8264053;28;20065;-73
2022/06/06 14:11:05;;;;;;;3.33;2.85;;;;;;;22.41;68.22;99282.91;8263949;28;20089;-74
2022/06/06 14:15:09;;;;;;;3.67;2.92;;;;;;;22.37;68.00;99273.81;8266592;28;20077;-73
2022/06/06 14:19:12;;;;;;;4.50;2.75;;;;;;;22.12;68.11;99288.19;8276592;28;20057;-73
2022/06/06 14:23:25;;;;;;;4.13;3.17;;;;;;;21.83;68.60;99291.84;8296237;28;20069;-73
2022/06/06 14:27:26;;;;;;;4.88;3.40;;;;;;;21.65;69.76;99286.19;8315620;28;20045;-72
2022/06/06 14:31:57;;;;;;;4.07;3.10;;;;;;;21.49;70.53;99283.66;8405928;28;20081;-73
2022/06/06 14:36:19;;;;;;;5.32;3.10;;;;;;;21.42;71.79;99288.28;8426578;28;20056;-71
2022/06/06 14:40:34;;;;;;;4.78;3.47;;;;;;;21.40;72.80;99274.94;8401224;28;20059;-73
2022/06/06 14:44:40;;;;;;;5.90;3.30;;;;;;;21.43;73.67;99282.44;8426417;28;20052;-72
2022/06/06 14:48:52;;;;;;;4.20;3.33;;;;;;;21.43;73.39;99279.69;8454389;28;20043;-73
2022/06/06 14:52:56;;;;;;;3.63;3.33;;;;;;;21.57;73.17;99272.75;8460938;28;20455;-73
2022/06/06 14:57:01;;;;;;;4.50;3.70;;;;;;;21.81;72.49;99266.69;8447989;28;20044;-72
2022/06/06 15:01:17;;;;;;;3.92;3.42;;;;;;;22.02;71.93;99260.59;8415607;28;20068;-73
2022/06/06 15:05:24;;;;;;;5.43;3.60;;;;;;;22.11;70.71;99263.81;8435735;28;20048;-73
2022/06/06 15:09:31;;;;;;;4.70;3.70;;;;;;;22.21;70.25;99258.41;8442706;28;20044;-73
2022/06/06 15:13:35;;;;;;;3.40;3.03;;;;;;;22.23;68.98;99261.56;8451135;28;20043;-73
2022/06/06 15:17:39;;;;;;;7.47;3.60;;;;;;;22.26;69.60;99266.28;8441190;28;20039;-74
2022/06/06 15:21:42;;;;;;;4.93;3.85;;;;;;;22.28;68.94;99254.91;8450940;28;20035;-73
2022/06/06 15:25:52;;;;;;;4.00;3.60;;;;;;;22.28;68.34;99258.44;8411731;28;20064;-74
2022/06/06 15:30:01;;;;;;;4.28;3.88;;;;;;;22.29;68.38;99254.53;8440492;28;20086;-74
2022/06/06 15:34:17;;;;;;;5.88;3.78;;;;;;;22.56;68.34;99251.56;8451264;28;20039;-73
2022/06/06 15:38:44;;;;;;;4.38;3.97;;;;;;;22.87;68.04;99250.94;8454251;27;20057;-73
2022/06/06 15:43:04;;;;;;;4.40;4.00;;;;;;;23.02;66.16;99247.06;8519716;27;20372;-73
2022/06/06 15:47:23;;;;;;;4.20;3.80;;;;;;;23.34;66.23;99241.66;8512669;27;20046;-73
2022/06/06 15:51:37;;;;;;;4.93;4.43;;;;;;;23.25;66.19;99232.19;8524401;27;20061;-73
2022/06/06 15:55:52;;;;;;;5.22;3.40;;;;;;;23.24;66.08;99230.59;8508813;27;20404;-72
2022/06/06 16:00:23;;;;;;;4.63;3.85;;;;;;;23.25;64.88;99223.91;8519615;27;20053;-73
2022/06/06 16:04:34;;;;;;;6.20;3.90;;;;;;;23.54;64.08;99222.81;8467299;27;20039;-72
2022/06/06 16:09:14;;;;;;;7.50;4.20;;;;;;;23.70;62.14;99220.47;8529349;27;20067;-72
2022/06/06 16:13:24;;;;;;;3.63;3.33;;;;;;;23.69;61.99;99224.38;8400958;28;20071;-73
2022/06/06 16:17:31;;;;;;;4.05;3.50;;;;;;;23.72;61.43;99223.63;8421388;28;20124;-75
2022/06/06 16:21:57;;;;;;;4.50;3.72;;;;;;;23.58;61.63;99223.63;8417358;28;20101;-73
2022/06/06 16:26:20;;;;;;;5.43;3.88;;;;;;;23.25;63.28;99215.66;8416130;28;20052;-73
2022/06/06 16:30:27;;;;;;;5.03;4.53;;;;;;;22.77;65.19;99213.16;8421123;28;20162;-73
2022/06/06 16:34:37;;;;;;;4.30;3.90;;;;;;;22.52;65.88;99217.72;8422458;28;20135;-73
2022/06/06 16:38:59;;;;;;;8.65;4.60;;;;;;;22.49;65.94;99218.47;8385369;28;20422;-73
2022/06/06 16:51:57;;;;;;;4.50;3.83;;;;;;;22.19;67.01;99216.75;8462296;28;20702;-73
2022/06/06 16:56:36;;;;;;;6.80;4.78;;;;;;;22.53;66.62;99213.78;8445377;28;20150;-72
2022/06/06 17:00:45;;;;;;;6.35;5.18;;;;;;;22.55;66.64;99211.44;8367428;28;20127;-74
2022/06/06 17:04:53;;;;;;;7.50;4.70;;;;;;;22.42;66.87;99219.22;8374619;28;20140;-74
2022/06/06 17:09:05;;;;;;;5.30;4.43;;;;;;;22.30;67.40;99212.09;8393207;28;20059;-74
2022/06/06 17:13:23;;;;;;;11.57;5.18;;;;;;;21.99;68.27;99218.19;8376301;28;20056;-74
2022/06/06 17:17:25;;;;;;;8.57;5.53;;;;;;;21.77;69.18;99216.41;8377542;28;20040;-73
2022/06/06 17:21:28;;;;;;;12.18;6.30;;;;;;;21.68;69.55;99218.69;8382063;28;20056;-73
2022/06/06 17:25:38;;;;;;;10.38;6.82;;;;;;;21.54;69.73;99213.84;8357630;28;20406;-73
2022/06/06 17:30:07;;;;;;;24.02;14.15;;;;;;;21.32;70.19;99218.34;8396433;28;20048;-73
2022/06/06 17:34:26;;;;;;;18.97;12.33;;;;;;;21.11;70.91;99215.34;8423171;28;20081;-72
2022/06/06 17:38:32;;;;;;;;;;;;;;;21.11;70.68;99212.59;8460421;27;20055;-73
2022/06/06 17:42:36;;;;;;;18.55;11.35;;;;;;;21.02;70.90;99214.84;8536518;27;19919;-73
2022/06/06 17:47:00;;;;;;;16.58;9.90;;;;;;;20.92;70.93;99215.53;8513997;27;20039;-73
2022/06/06 17:51:20;;;;;;;22.55;12.90;;;;;;;20.76;71.81;99206.72;8528839;27;20091;-72
2022/06/06 17:55:39;;;;;;;20.10;13.88;;;;;;;20.63;72.60;99204.19;8536038;27;20051;-73
2022/06/06 17:59:43;;;;;;;23.13;13.13;;;;;;;20.53;73.15;99210.34;8536047;27;20118;-72
2022/06/06 18:03:59;;;;;;;14.38;8.73;;;;;;;20.50;73.34;99200.13;8521243;27;20051;-72
2022/06/06 18:08:28;;;;;;;30.42;15.50;;;;;;;20.40;73.71;99205.47;8484644;27;20054;-72
2022/06/06 18:12:38;;;;;;;34.03;17.63;;;;;;;20.30;73.58;99201.38;8517182;27;20050;-73
2022/06/06 18:16:52;;;;;;;36.45;19.70;;;;;;;20.20;74.24;99196.53;8535556;27;20054;-73
2022/06/06 18:21:00;;;;;;;56.17;24.35;;;;;;;20.12;74.46;99200.34;8513357;27;20047;-72
2022/06/06 18:25:01;;;;;;;;;;;;;;;19.94;74.96;99193.78;8512759;27;20061;-73
2022/06/06 18:29:19;;;;;;;23.42;13.20;;;;;;;19.77;75.65;99201.34;8513586;27;19926;-72
2022/06/06 18:33:25;;;;;;;24.00;14.10;;;;;;;19.70;75.82;99195.78;8512656;27;20047;-72
2022/06/06 18:37:30;;;;;;;19.38;11.48;;;;;;;19.62;76.39;99198.75;8506296;27;20050;-74
2022/06/06 18:41:40;;;;;;;12.45;8.52;;;;;;;19.50;76.92;99202.50;8481426;27;20072;-74
2022/06/06 18:45:41;;;;;;;9.38;6.38;;;;;;;19.32;77.95;99212.31;8513580;27;20039;-73
2022/06/06 18:49:49;;;;;;;9.63;6.72;;;;;;;19.23;78.00;99198.06;8525629;27;20050;-74
2022/06/06 18:53:57;;;;;;;10.32;7.07;;;;;;;19.16;77.95;99208.88;8507242;27;20500;-74
2022/06/06 18:57:59;;;;;;;;;;;;;;;19.03;78.60;99207.47;8486136;27;20492;-75
2022/06/06 19:02:11;;;;;;;74.82;33.55;;;;;;;18.90;79.49;99201.34;8408911;28;19928;-73
2022/06/06 19:06:28;;;;;;;79.43;33.47;;;;;;;18.80;79.92;99194.53;8400540;28;20058;-74
2022/06/06 19:10:38;;;;;;;57.67;26.33;;;;;;;18.67;80.99;99198.53;8355503;28;20060;-74
2022/06/06 19:14:55;;;;;;;52.00;28.33;;;;;;;18.59;81.54;99202.28;8417915;28;20048;-73
2022/06/06 19:18:56;;;;;;;48.17;25.98;;;;;;;18.59;81.14;99205.03;8424522;28;20583;-72
2022/06/06 19:23:02;;;;;;;27.63;16.17;;;;;;;18.55;81.16;99207.69;8417934;28;20040;-73
2022/06/06 19:27:10;;;;;;;17.40;9.02;;;;;;;18.43;81.81;99215.19;8365146;28;20044;-73
2022/06/06 19:31:33;;;;;;;34.92;22.02;;;;;;;18.34;82.40;99206.41;8420612;27;20046;-72
2022/06/06 19:35:34;;;;;;;31.65;19.02;;;;;;;18.32;82.14;99203.25;8514067;27;20064;-72
2022/06/06 19:39:37;;;;;;;29.70;19.83;;;;;;;18.22;82.97;99203.78;8529361;27;20058;-72
2022/06/06 19:43:39;;;;;;;31.42;19.48;;;;;;;18.12;84.09;99205.16;8528283;27;20414;-72
2022/06/06 19:47:47;;;;;;;35.45;20.42;;;;;;;18.13;83.59;99196.59;8514208;27;20051;-72
2022/06/06 19:51:49;;;;;;;27.13;16.92;;;;;;;18.11;83.17;99187.94;8532022;27;20072;-73
2022/06/06 19:56:27;;;;;;;22.75;14.35;;;;;;;18.08;83.27;99191.38;8513766;27;20047;-72
2022/06/06 20:00:33;;;;;;;18.98;11.32;;;;;;;18.03;83.00;99191.66;8358830;28;20395;-73
2022/06/06 20:04:36;;;;;;;11.63;8.75;;;;;;;18.00;83.03;99175.19;8326802;28;20044;-73
2022/06/06 20:08:37;;;;;;;9.55;8.25;;;;;;;17.92;83.82;99185.19;8342235;28;20211;-72
2022/06/06 20:12:48;;;;;;;25.13;16.33;;;;;;;17.81;85.06;99184.13;8360804;28;20364;-73